首页
METAR-TAF:

METAR-TAF

机场 :

巴格達國際機場

巴格达, 伊拉克

纬度: 33-15-45N, 经度: 44-14-04E, 海拔: 35米

当前天气观测

该预报发布于28分钟前的14:00 UTC
风速9节,风向西转西北
温度 20°C
湿度 43%
气压 1020 hPa
能见度10公里或以上
1500米以下无云,无积雨云

METAR: ORBI 201400Z 29009KT CAVOK 20/07 Q1020 NOSIG

时间: 17:28 (14:28 UTC)

预报

该预报发布于4小时和28分钟前的10:00 UTC
预报有效从20日的 12点(UTC)到 21日的 12点(UTC)
风速8节,风向西转西北
能见度10公里或以上
1500米以下无云,无积雨云

TAF: ORBI 201000Z 2012/2112 30008KT CAVOK

超过4000个机场的气象观测和天气预报(METAR&TAF报告)。

可查询的气象台以黄色和红色小点在地图上表示。

将鼠标移到小点上方,可查看气象台名称。

然后点击查看天气观测和预报。

如需切换地图:点击带黑十字的绿色按钮放大地图;点击带横线的绿色按钮缩小地图;或者点击绿色箭头查看邻近地区的地图。


METAR-TAF: